createdAt,value
2019-05-03T00:01:03.284Z,81.90
2019-05-03T00:03:31.998Z,81.10
2019-05-03T00:06:03.787Z,82.40
2019-05-03T00:08:33.342Z,82.10
2019-05-03T00:11:02.352Z,81.80
2019-05-03T00:13:42.643Z,81.20
2019-05-03T00:16:19.503Z,80.80
2019-05-03T00:19:13.645Z,80.50
2019-05-03T00:21:49.318Z,81.00
2019-05-03T00:24:20.035Z,83.60
2019-05-03T00:26:47.442Z,81.60
2019-05-03T00:29:14.986Z,82.20
2019-05-03T00:31:44.481Z,82.70
2019-05-03T00:36:55.283Z,82.90
2019-05-03T00:39:37.483Z,81.30
2019-05-03T00:42:05.126Z,83.30
2019-05-03T00:44:32.973Z,84.30
2019-05-03T00:47:02.279Z,84.10
2019-05-03T00:49:31.910Z,82.60
2019-05-03T00:51:59.337Z,84.10
2019-05-03T00:54:26.838Z,83.40
2019-05-03T00:56:54.555Z,82.70
2019-05-03T00:59:22.234Z,82.20
2019-05-03T01:01:52.034Z,81.00
2019-05-03T01:04:20.043Z,82.70
2019-05-03T01:06:47.833Z,83.10
2019-05-03T01:09:19.950Z,81.70
2019-05-03T01:11:47.721Z,81.70
2019-05-03T01:14:15.310Z,83.30
2019-05-03T01:16:47.046Z,83.30
2019-05-03T01:19:17.602Z,83.90
2019-05-03T01:21:44.974Z,83.70
2019-05-03T01:24:12.543Z,84.30
2019-05-03T01:26:42.124Z,85.60
2019-05-03T01:29:09.658Z,84.80
2019-05-03T01:31:37.197Z,85.30
2019-05-03T01:34:07.810Z,85.90
2019-05-03T01:36:35.335Z,85.70
2019-05-03T01:39:03.046Z,85.60
2019-05-03T01:41:32.207Z,85.70
2019-05-03T01:44:01.985Z,86.60
2019-05-03T01:46:31.500Z,87.00
2019-05-03T01:49:18.579Z,87.20
2019-05-03T01:52:07.761Z,87.30
2019-05-03T01:54:35.205Z,85.70
2019-05-03T01:57:03.760Z,85.30
2019-05-03T01:59:32.039Z,86.20
2019-05-03T02:02:09.119Z,84.40
2019-05-03T02:04:41.732Z,84.30
2019-05-03T02:07:09.317Z,84.40
2019-05-03T02:09:36.777Z,84.10
2019-05-03T02:12:06.312Z,86.00
2019-05-03T02:14:33.830Z,84.10
2019-05-03T02:17:01.785Z,85.00
2019-05-03T02:19:29.843Z,85.30
2019-05-03T02:21:57.338Z,84.20
2019-05-03T02:24:24.911Z,84.50
2019-05-03T02:26:52.961Z,84.40
2019-05-03T02:29:21.920Z,83.00
2019-05-03T02:31:50.098Z,84.50
2019-05-03T02:34:17.513Z,83.60
2019-05-03T02:36:44.992Z,82.80
2019-05-03T02:39:15.071Z,84.00
2019-05-03T02:41:47.902Z,83.90
2019-05-03T02:44:15.799Z,84.10
2019-05-03T02:46:57.379Z,85.60
2019-05-03T02:49:31.480Z,85.10
2019-05-03T02:51:59.448Z,84.70
2019-05-03T02:54:27.949Z,85.80
2019-05-03T02:56:56.021Z,85.00
2019-05-03T02:59:26.148Z,84.30
2019-05-03T03:01:55.764Z,83.70
2019-05-03T03:04:22.437Z,84.10
2019-05-03T03:06:50.085Z,85.20
2019-05-03T03:09:17.777Z,84.20
2019-05-03T03:11:45.917Z,85.40
2019-05-03T03:14:16.437Z,83.90
2019-05-03T03:16:45.501Z,83.40
2019-05-03T03:19:15.752Z,83.30
2019-05-03T03:21:46.536Z,83.20
2019-05-03T03:24:17.343Z,82.70
2019-05-03T03:26:47.194Z,82.10
2019-05-03T03:29:16.984Z,84.20
2019-05-03T03:32:17.670Z,84.70
2019-05-03T03:34:55.387Z,82.50
2019-05-03T03:37:17.675Z,83.50
2019-05-03T03:39:45.768Z,84.80
2019-05-03T03:42:15.825Z,83.40
2019-05-03T03:44:45.367Z,84.90
2019-05-03T03:47:16.731Z,82.70
2019-05-03T03:49:47.894Z,84.60
2019-05-03T03:52:16.054Z,83.70
2019-05-03T03:54:45.675Z,83.80
2019-05-03T03:57:15.951Z,85.10
2019-05-03T03:59:45.437Z,85.30
2019-05-03T04:02:15.834Z,85.80
2019-05-03T04:04:45.074Z,85.70
2019-05-03T04:07:21.804Z,86.60
2019-05-03T04:09:49.305Z,87.10
2019-05-03T04:12:16.873Z,86.20
2019-05-03T04:14:56.015Z,85.20
2019-05-03T04:17:45.997Z,84.10
2019-05-03T04:20:16.516Z,84.80
2019-05-03T04:22:45.303Z,83.20
2019-05-03T04:25:15.455Z,84.20
2019-05-03T04:27:42.215Z,83.00
2019-05-03T04:30:09.758Z,84.50
2019-05-03T04:32:37.268Z,83.10
2019-05-03T04:35:05.448Z,83.20
2019-05-03T04:37:35.952Z,82.50
2019-05-03T04:40:06.243Z,82.10
2019-05-03T04:42:35.708Z,82.50
2019-05-03T04:45:05.854Z,83.30
2019-05-03T04:47:35.605Z,82.30
2019-05-03T04:50:05.753Z,82.70
2019-05-03T04:52:35.971Z,82.30
2019-05-03T04:55:03.152Z,81.30
2019-05-03T04:57:45.518Z,82.20
2019-05-03T05:00:11.556Z,83.60
2019-05-03T05:02:39.342Z,83.20
2019-05-03T05:05:07.039Z,83.30
2019-05-03T05:07:42.342Z,82.40
2019-05-03T05:10:10.123Z,82.30
2019-05-03T05:12:40.713Z,82.30
2019-05-03T05:15:09.188Z,81.20
2019-05-03T05:18:00.200Z,81.10
2019-05-03T05:20:42.173Z,80.40
2019-05-03T05:23:09.472Z,81.80
2019-05-03T05:25:45.245Z,82.50
2019-05-03T05:28:19.050Z,80.20
2019-05-03T05:30:46.575Z,80.30
2019-05-03T05:33:21.369Z,81.60
2019-05-03T05:35:49.771Z,81.50
2019-05-03T05:38:17.227Z,82.10
2019-05-03T05:40:45.153Z,84.30
2019-05-03T05:43:12.891Z,84.10
2019-05-03T05:45:42.146Z,81.90
2019-05-03T05:48:11.009Z,82.50
2019-05-03T05:50:44.831Z,81.40
2019-05-03T05:53:15.346Z,81.00
2019-05-03T05:56:05.117Z,81.30
2019-05-03T05:58:39.134Z,80.60
2019-05-03T06:01:14.471Z,79.60
2019-05-03T06:03:57.422Z,79.00
2019-05-03T06:06:46.900Z,78.40
2019-05-03T06:09:21.185Z,77.80
2019-05-03T06:11:55.408Z,77.90
2019-05-03T06:14:29.383Z,77.80
2019-05-03T06:17:26.044Z,77.40
2019-05-03T06:20:17.691Z,77.40
2019-05-03T06:23:09.346Z,74.50
2019-05-03T06:25:41.224Z,74.90
2019-05-03T06:28:20.572Z,75.70
2019-05-03T06:31:10.606Z,79.30
2019-05-03T06:33:57.067Z,76.30
2019-05-03T06:36:26.239Z,75.70
2019-05-03T06:38:56.369Z,66.70
2019-05-03T06:41:30.127Z,68.20
2019-05-03T06:44:19.163Z,66.60
2019-05-03T06:46:55.411Z,67.50
2019-05-03T06:49:19.821Z,68.50
2019-05-03T06:51:50.311Z,71.10
2019-05-03T06:54:20.702Z,70.60
2019-05-03T06:56:52.715Z,64.80
2019-05-03T06:59:41.824Z,63.40
2019-05-03T07:02:41.326Z,62.20
2019-05-03T07:05:49.868Z,59.30
2019-05-03T07:08:45.480Z,57.20
2019-05-03T07:11:15.454Z,59.70
2019-05-03T07:13:44.850Z,55.70
2019-05-03T07:16:11.696Z,55.70
2019-05-03T07:18:38.567Z,53.90
2019-05-03T07:21:10.207Z,53.40
2019-05-03T07:23:39.656Z,52.10
2019-05-03T07:26:40.077Z,49.20
2019-05-03T07:29:15.215Z,47.00
2019-05-03T07:31:42.189Z,48.40
2019-05-03T07:34:29.455Z,48.70
2019-05-03T07:36:58.115Z,47.00
2019-05-03T07:39:25.589Z,43.80
2019-05-03T07:41:55.109Z,44.60
2019-05-03T07:44:22.714Z,41.80
2019-05-03T07:46:51.269Z,46.00
2019-05-03T07:49:18.894Z,42.20
2019-05-03T07:51:46.524Z,41.50
2019-05-03T07:54:15.795Z,44.40
2019-05-03T07:56:48.706Z,43.30
2019-05-03T07:59:16.416Z,42.20
2019-05-03T08:01:49.226Z,43.70
2019-05-03T08:04:20.186Z,45.00
2019-05-03T08:06:48.542Z,42.30
2019-05-03T08:09:17.069Z,41.70
2019-05-03T08:11:48.996Z,40.80
2019-05-03T08:14:18.948Z,41.00
2019-05-03T08:16:47.530Z,37.80
2019-05-03T08:19:15.297Z,43.30
2019-05-03T08:21:47.611Z,39.50
2019-05-03T08:24:16.063Z,41.10
2019-05-03T08:26:45.348Z,42.30
2019-05-03T08:29:16.902Z,41.00
2019-05-03T08:32:15.433Z,39.20
2019-05-03T08:35:11.222Z,40.00
2019-05-03T08:37:54.673Z,39.00
2019-05-03T08:40:24.651Z,40.00
2019-05-03T08:42:52.333Z,38.40
2019-05-03T08:45:20.405Z,39.70
2019-05-03T08:47:47.982Z,40.50
2019-05-03T08:50:21.201Z,40.30
2019-05-03T08:52:46.230Z,39.00
2019-05-03T08:55:15.896Z,39.80
2019-05-03T08:57:44.748Z,42.50
2019-05-03T09:00:16.213Z,40.30
2019-05-03T09:02:44.708Z,39.80
2019-05-03T09:05:12.561Z,41.10
2019-05-03T09:07:40.403Z,41.60
2019-05-03T09:10:30.036Z,43.20
2019-05-03T09:13:14.884Z,40.10
2019-05-03T09:15:44.554Z,41.10
2019-05-03T09:18:15.110Z,40.90
2019-05-03T09:20:41.800Z,43.10
2019-05-03T09:23:10.187Z,40.90
2019-05-03T09:25:37.688Z,41.50
2019-05-03T09:28:06.117Z,42.20
2019-05-03T09:30:35.704Z,41.80
2019-05-03T09:33:08.892Z,45.80
2019-05-03T09:35:36.079Z,42.60
2019-05-03T09:38:05.530Z,44.20
2019-05-03T09:40:35.579Z,40.90
2019-05-03T09:43:04.647Z,40.40
2019-05-03T09:45:35.346Z,38.80
2019-05-03T09:48:05.482Z,39.20
2019-05-03T09:50:35.895Z,42.30
2019-05-03T09:53:08.844Z,40.20
2019-05-03T09:55:39.079Z,40.60
2019-05-03T09:58:06.796Z,41.60
2019-05-03T10:00:36.587Z,39.70
2019-05-03T10:03:05.603Z,40.10
2019-05-03T10:05:35.135Z,41.10
2019-05-03T10:08:05.170Z,41.90
2019-05-03T10:10:55.280Z,40.80
2019-05-03T10:13:47.380Z,42.50
2019-05-03T10:16:14.921Z,41.30
2019-05-03T10:18:45.670Z,44.00
2019-05-03T10:21:14.682Z,43.10
2019-05-03T10:23:49.925Z,42.00
2019-05-03T10:26:17.582Z,39.50
2019-05-03T10:28:45.093Z,39.10
2019-05-03T10:31:13.234Z,40.70
2019-05-03T10:33:57.981Z,40.20
2019-05-03T10:36:25.341Z,37.30
2019-05-03T10:38:55.394Z,39.30
2019-05-03T10:41:25.068Z,36.20
2019-05-03T10:43:52.909Z,39.30
2019-05-03T10:46:20.538Z,38.40
2019-05-03T10:48:48.497Z,38.20
2019-05-03T10:51:16.171Z,38.60
2019-05-03T10:53:46.337Z,38.40
2019-05-03T10:56:39.918Z,38.70
2019-05-03T10:59:09.020Z,39.10
2019-05-03T11:01:48.867Z,39.20
2019-05-03T11:04:17.285Z,40.90
2019-05-03T11:06:45.734Z,40.50
2019-05-03T11:09:15.330Z,39.50
2019-05-03T11:11:45.350Z,37.70
2019-05-03T11:14:15.146Z,38.40
2019-05-03T11:16:45.776Z,35.80
2019-05-03T11:19:14.746Z,36.30
2019-05-03T11:21:42.810Z,39.40
2019-05-03T11:24:14.760Z,37.70
2019-05-03T11:26:47.165Z,37.80
2019-05-03T11:29:15.799Z,36.20
2019-05-03T11:32:08.252Z,37.40
2019-05-03T11:34:50.346Z,36.30
2019-05-03T11:37:55.069Z,36.50
2019-05-03T11:40:34.483Z,39.40
2019-05-03T11:43:08.641Z,36.80
2019-05-03T11:45:42.238Z,38.20
2019-05-03T11:48:09.844Z,38.10
2019-05-03T11:50:37.250Z,38.90
2019-05-03T11:53:05.313Z,39.60
2019-05-03T11:55:35.195Z,40.30
2019-05-03T11:58:06.023Z,39.30
2019-05-03T12:00:37.519Z,36.60
2019-05-03T12:03:30.024Z,38.60
2019-05-03T12:05:58.824Z,38.60
2019-05-03T12:08:25.770Z,38.00
2019-05-03T12:10:58.650Z,38.60
2019-05-03T12:13:29.421Z,39.40
2019-05-03T12:15:57.152Z,39.70
2019-05-03T12:18:26.278Z,38.80
2019-05-03T12:20:56.908Z,38.50
2019-05-03T12:23:25.813Z,37.90
2019-05-03T12:25:53.658Z,37.60
2019-05-03T12:28:22.477Z,39.20
2019-05-03T12:30:49.965Z,38.40
2019-05-03T12:33:17.886Z,37.20
2019-05-03T12:35:46.436Z,36.20
2019-05-03T12:38:16.472Z,37.90
2019-05-03T12:40:45.634Z,36.50
2019-05-03T12:43:14.967Z,38.90
2019-05-03T12:45:43.299Z,37.60
2019-05-03T12:48:10.839Z,37.70
2019-05-03T12:50:38.996Z,39.70
2019-05-03T12:53:06.393Z,40.10
2019-05-03T12:55:35.580Z,38.80
2019-05-03T12:58:06.236Z,39.80
2019-05-03T13:00:55.700Z,39.70
2019-05-03T13:03:42.053Z,39.60
2019-05-03T13:06:09.922Z,41.40
2019-05-03T13:08:42.565Z,42.20
2019-05-03T13:11:10.584Z,42.50
2019-05-03T13:13:38.965Z,42.50
2019-05-03T13:18:45.792Z,42.50
2019-05-03T13:21:13.542Z,41.90
2019-05-03T13:23:42.143Z,43.10
2019-05-03T13:26:09.779Z,43.50
2019-05-03T13:28:40.585Z,43.90
2019-05-03T13:31:07.805Z,43.20
2019-05-03T13:33:35.336Z,43.40
2019-05-03T13:36:03.406Z,43.00
2019-05-03T13:38:30.951Z,42.80
2019-05-03T13:40:59.577Z,43.30
2019-05-03T13:43:26.625Z,42.70
2019-05-03T13:45:55.632Z,41.50
2019-05-03T13:48:24.215Z,41.60
2019-05-03T13:50:52.559Z,41.40
2019-05-03T13:53:20.323Z,42.20
2019-05-03T13:55:48.270Z,41.90
2019-05-03T13:58:17.011Z,42.60
2019-05-03T14:00:45.448Z,42.00
2019-05-03T14:03:15.296Z,41.90
2019-05-03T14:05:44.557Z,41.70
2019-05-03T14:08:12.506Z,42.40
2019-05-03T14:10:40.401Z,43.90
2019-05-03T14:13:09.765Z,42.50
2019-05-03T14:15:37.414Z,42.00
2019-05-03T14:18:05.971Z,43.20
2019-05-03T14:20:56.067Z,42.70
2019-05-03T14:23:25.317Z,42.10
2019-05-03T14:25:55.674Z,42.50
2019-05-03T14:28:25.266Z,43.00
2019-05-03T14:30:54.820Z,42.90
2019-05-03T14:33:24.823Z,44.00
2019-05-03T14:35:54.663Z,43.40
2019-05-03T14:38:25.456Z,43.30
2019-05-03T14:40:55.093Z,44.40
2019-05-03T14:43:24.912Z,45.00
2019-05-03T14:45:54.822Z,42.50
2019-05-03T14:48:24.826Z,44.30
2019-05-03T14:50:54.993Z,44.10
2019-05-03T14:53:25.452Z,44.80
2019-05-03T14:56:00.282Z,45.00
2019-05-03T14:59:01.918Z,42.90
2019-05-03T15:01:49.360Z,44.40
2019-05-03T15:04:16.907Z,43.30
2019-05-03T15:06:46.058Z,44.40
2019-05-03T15:09:18.437Z,44.40
2019-05-03T15:11:45.285Z,46.10
2019-05-03T15:14:14.533Z,44.90
2019-05-03T15:16:45.022Z,45.10
2019-05-03T15:19:17.421Z,45.20
2019-05-03T15:21:45.308Z,45.90
2019-05-03T15:24:14.546Z,46.60
2019-05-03T15:26:44.624Z,46.50
2019-05-03T15:29:15.421Z,47.70
2019-05-03T15:31:44.776Z,48.10
2019-05-03T15:34:12.480Z,47.90
2019-05-03T15:36:40.658Z,48.30
2019-05-03T15:39:08.039Z,48.00
2019-05-03T15:41:36.408Z,48.50
2019-05-03T15:44:26.130Z,48.20
2019-05-03T15:47:09.516Z,48.10
2019-05-03T15:49:35.574Z,48.60
2019-05-03T15:52:29.224Z,48.30
2019-05-03T15:55:02.493Z,48.20
2019-05-03T15:57:42.405Z,48.60
2019-05-03T16:03:35.814Z,49.10
2019-05-03T16:06:06.273Z,48.20
2019-05-03T16:08:34.752Z,48.00
2019-05-03T16:11:02.912Z,48.80
2019-05-03T16:13:30.345Z,48.80
2019-05-03T16:15:58.310Z,47.80
2019-05-03T16:18:27.805Z,48.10
2019-05-03T16:20:57.042Z,48.60
2019-05-03T16:23:25.368Z,49.00
2019-05-03T16:25:54.389Z,47.80
2019-05-03T16:28:32.011Z,48.10
2019-05-03T16:31:05.029Z,49.50
2019-05-03T16:33:34.774Z,49.40
2019-05-03T16:36:02.075Z,49.40
2019-05-03T16:38:30.171Z,50.00
2019-05-03T16:40:57.892Z,50.00
2019-05-03T16:43:25.724Z,50.40
2019-05-03T16:45:55.164Z,50.40
2019-05-03T16:48:24.538Z,50.70
2019-05-03T16:50:52.427Z,51.00
2019-05-03T16:53:19.862Z,51.50
2019-05-03T16:55:48.711Z,52.00
2019-05-03T16:58:17.122Z,52.50
2019-05-03T17:00:45.001Z,52.20
2019-05-03T17:03:12.585Z,52.30
2019-05-03T17:05:58.417Z,52.40
2019-05-03T17:08:38.928Z,52.50
2019-05-03T17:11:10.568Z,52.80
2019-05-03T17:13:42.214Z,54.00
2019-05-03T17:16:09.955Z,54.20
2019-05-03T17:18:38.156Z,54.50
2019-05-03T17:21:06.375Z,54.90
2019-05-03T17:23:35.300Z,54.80
2019-05-03T17:26:02.808Z,55.20
2019-05-03T17:28:30.403Z,56.50
2019-05-03T17:31:04.554Z,57.20
2019-05-03T17:33:34.684Z,57.80
2019-05-03T17:36:04.936Z,58.70
2019-05-03T17:38:32.663Z,58.20
2019-05-03T17:41:19.796Z,58.40
2019-05-03T17:43:58.333Z,58.50
2019-05-03T17:46:32.556Z,59.80
2019-05-03T17:49:00.307Z,59.60
2019-05-03T17:51:42.473Z,59.90
2019-05-03T17:54:29.252Z,60.20
2019-05-03T17:57:04.708Z,60.20
2019-05-03T17:59:39.800Z,61.70
2019-05-03T18:02:32.402Z,61.70
2019-05-03T18:05:19.812Z,62.50
2019-05-03T18:08:13.022Z,63.10
2019-05-03T18:10:43.173Z,63.00
2019-05-03T18:13:11.093Z,64.20
2019-05-03T18:15:39.282Z,64.50
2019-05-03T18:18:07.699Z,63.30
2019-05-03T18:20:37.133Z,63.90
2019-05-03T18:23:06.671Z,65.70
2019-05-03T18:25:38.783Z,65.80
2019-05-03T18:28:06.684Z,65.30
2019-05-03T18:30:34.902Z,64.60
2019-05-03T18:33:02.621Z,65.80
2019-05-03T18:35:33.145Z,65.00
2019-05-03T18:38:01.631Z,67.50
2019-05-03T18:40:35.477Z,68.40
2019-05-03T18:43:09.505Z,69.80
2019-05-03T18:45:59.238Z,69.10
2019-05-03T18:48:26.979Z,68.70
2019-05-03T18:50:57.465Z,70.50
2019-05-03T18:53:28.288Z,70.50
2019-05-03T18:55:55.790Z,70.30
2019-05-03T18:58:24.442Z,70.30
2019-05-03T19:00:54.866Z,69.70
2019-05-03T19:03:22.495Z,72.10
2019-05-03T19:05:54.701Z,72.90
2019-05-03T19:08:39.070Z,72.40
2019-05-03T19:11:16.689Z,72.20
2019-05-03T19:13:52.577Z,74.00
2019-05-03T19:16:45.409Z,73.40
2019-05-03T19:19:15.127Z,73.40
2019-05-03T19:21:56.056Z,74.80
2019-05-03T19:24:24.639Z,74.30
2019-05-03T19:26:51.938Z,76.50
2019-05-03T19:29:21.739Z,75.80
2019-05-03T19:31:50.023Z,75.00
2019-05-03T19:34:19.994Z,75.70
2019-05-03T19:36:56.959Z,76.00
2019-05-03T19:39:28.306Z,75.30
2019-05-03T19:41:56.242Z,75.50
2019-05-03T19:44:24.954Z,75.70
2019-05-03T19:50:15.840Z,76.00
2019-05-03T19:53:02.363Z,75.60
2019-05-03T19:55:40.175Z,77.30
2019-05-03T19:58:08.652Z,78.50
2019-05-03T20:01:14.868Z,76.90
2019-05-03T20:04:10.010Z,77.70
2019-05-03T20:06:54.576Z,77.30
2019-05-03T20:09:28.910Z,78.50
2019-05-03T20:12:04.593Z,76.20
2019-05-03T20:18:00.220Z,78.10
2019-05-03T20:20:29.486Z,78.50
2019-05-03T20:23:05.646Z,77.80
2019-05-03T20:25:46.842Z,78.10
2019-05-03T20:28:22.176Z,78.00
2019-05-03T20:31:05.014Z,78.20
2019-05-03T20:33:38.278Z,78.90
2019-05-03T20:36:51.617Z,79.40
2019-05-03T20:39:50.733Z,82.10
2019-05-03T20:42:48.192Z,80.60
2019-05-03T20:45:39.590Z,81.20
2019-05-03T20:48:18.327Z,81.20
2019-05-03T20:51:15.635Z,79.90
2019-05-03T20:53:44.901Z,80.20
2019-05-03T20:57:28.608Z,79.10
2019-05-03T21:00:45.091Z,78.90
2019-05-03T21:03:17.527Z,77.70
2019-05-03T21:05:58.271Z,80.30
2019-05-03T21:08:52.550Z,77.70
2019-05-03T21:11:38.415Z,79.00
2019-05-03T21:14:06.379Z,79.50
2019-05-03T21:17:04.583Z,81.50
2019-05-03T21:19:51.114Z,80.90
2019-05-03T21:22:24.936Z,79.30
2019-05-03T21:25:12.391Z,79.40
2019-05-03T21:27:51.257Z,79.30
2019-05-03T21:30:20.940Z,80.60
2019-05-03T21:32:48.457Z,81.00
2019-05-03T21:35:16.280Z,79.70
2019-05-03T21:37:45.365Z,79.50
2019-05-03T21:40:18.706Z,78.70
2019-05-03T21:42:48.344Z,80.70
2019-05-03T21:45:55.474Z,79.10
2019-05-03T21:48:32.422Z,80.00
2019-05-03T21:51:00.195Z,80.20
2019-05-03T21:53:29.216Z,82.20
2019-05-03T21:55:58.501Z,80.90
2019-05-03T21:58:28.928Z,80.30
2019-05-03T22:01:05.293Z,80.50
2019-05-03T22:03:39.139Z,81.60
2019-05-03T22:06:08.574Z,81.30
2019-05-03T22:08:55.410Z,81.20
2019-05-03T22:11:25.187Z,80.30
2019-05-03T22:14:02.083Z,80.00
2019-05-03T22:19:28.992Z,80.10
2019-05-03T22:22:15.171Z,82.60
2019-05-03T22:25:01.458Z,82.80
2019-05-03T22:27:36.365Z,82.50
2019-05-03T22:30:04.782Z,81.70
2019-05-03T22:32:35.455Z,81.50
2019-05-03T22:35:06.550Z,81.40
2019-05-03T22:37:41.794Z,82.90
2019-05-03T22:40:16.686Z,83.40
2019-05-03T22:42:44.909Z,83.10
2019-05-03T22:45:18.471Z,81.40
2019-05-03T22:47:47.267Z,80.40
2019-05-03T22:50:18.005Z,81.70
2019-05-03T22:52:54.939Z,81.50
2019-05-03T22:55:34.188Z,81.50
2019-05-03T22:58:05.097Z,81.30
2019-05-03T23:00:35.286Z,80.20
2019-05-03T23:03:06.597Z,81.90
2019-05-03T23:05:37.270Z,83.20
2019-05-03T23:08:05.540Z,81.60
2019-05-03T23:10:36.728Z,80.30
2019-05-03T23:13:06.672Z,82.10
2019-05-03T23:15:34.785Z,83.10
2019-05-03T23:18:04.993Z,81.50
2019-05-03T23:20:39.453Z,83.80
2019-05-03T23:23:31.281Z,84.50
2019-05-03T23:26:07.948Z,83.10
2019-05-03T23:28:35.735Z,83.10
2019-05-03T23:31:05.759Z,83.70
2019-05-03T23:33:42.100Z,83.40
2019-05-03T23:36:09.872Z,83.60
2019-05-03T23:38:38.501Z,83.00
2019-05-03T23:41:12.052Z,81.70
2019-05-03T23:43:41.699Z,81.60
2019-05-03T23:46:14.585Z,81.10
2019-05-03T23:48:42.092Z,82.50
2019-05-03T23:51:34.960Z,81.30
2019-05-03T23:54:06.773Z,83.10
2019-05-03T23:56:37.228Z,81.90
2019-05-03T23:59:05.559Z,81.20
